• Join FlightAware (Why Join?)
  • Login
  • US Flag 
07:31AM EDT


 

Airport Tracker/Info


-or-


 

Live Flight TrackerFlight Track Log ✈ SKW5598 ✈ 24-Mar-2012 ✈ KSFO - KPSC

Flight Track Log - Related Links

Times and Time Zones

All times are in EDT time to prevent confusion due to time zone crossing. See the SKW5598 flight status page for this flight to view local times or setup timezone preferences in your user account.

Time Position Orientation Groundspeed Altitude Reporting Facility
EDT Latitude Longitude Course Direction KTS MPH feet Rate Location/Type
05:39PM 37.6714 -122.3690 150° Southeast  Level FlightAware Approximate
05:40PM 37.6833 -122.5259 106° East  Level FlightAware Approximate
05:40PM 37.6422 -122.3478 43° Northeast 174 200 1,400  Level Oakland Center
05:41PM 37.6867 -122.2961 North 238 274 3,600 2,580 Climbing Oakland Center
05:42PM 37.7681 -122.2925 359° North 249 287 6,600 2,940 Climbing Oakland Center
05:43PM 37.8494 -122.2939 North 283 326 9,500 2,460 Climbing Oakland Center
05:44PM 37.9433 -122.2878 17° North 313 360 11,600 2,220 Climbing Oakland Center
05:45PM 38.0439 -122.2497 15° North 345 397 14,000 2,220 Climbing Oakland Center
05:46PM 38.1464 -122.2147 15° North 362 417 16,100 2,040 Climbing Oakland Center
05:47PM 38.2531 -122.1794 13° North 383 441 18,100 1,500 Climbing Oakland Center
05:48PM 38.3619 -122.1467 15° North 388 447 19,100 1,260 Climbing Oakland Center
05:49PM 38.4811 -122.1064 14° North 414 476 20,700 1,320 Climbing Oakland Center
05:50PM 38.6006 -122.0683 15° North 430 495 21,800 1,200 Climbing Oakland Center
05:51PM 38.7239 -122.0250 14° North 442 509 23,100 1,260 Climbing Oakland Center
05:52PM 38.8472 -121.9867 16° North 447 514 24,400 1,200 Climbing Oakland Center
05:53PM 38.9769 -121.9403 15° North 462 532 25,500 1,020 Climbing Oakland Center
05:54PM 39.1192 -121.8914 14° North 469 540 26,500 960 Climbing Oakland Center
05:55PM 39.2508 -121.8475 15° North 481 554 27,500 900 Climbing Oakland Center
05:56PM 39.3867 -121.8008 19° North 487 560 28,400 780 Climbing Oakland Center
05:57PM 39.5017 -121.7483 14° North 492 566 29,100 660 Climbing Oakland Center
05:58PM 39.6397 -121.7042 16° North 498 573 29,800 720 Climbing Oakland Center
05:59PM 39.7775 -121.6542 15° North 498 573 30,600 720 Climbing Oakland Center
06:00PM 39.9194 -121.6042 15° North 511 588 31,300 720 Climbing Oakland Center
06:01PM 40.0594 -121.5567 15° North 516 594 32,100 780 Climbing Oakland Center
06:02PM 40.1994 -121.5061 15° North 516 594 32,900 840 Climbing Oakland Center
06:03PM 40.3392 -121.4553 14° North 516 594 33,800 600 Climbing Oakland Center
06:04PM 40.4478 -121.4194 15° North 516 594 34,000 120 Climbing Seattle Center
06:05PM 40.5869 -121.3706 16° North 518 596 34,100  Climbing Seattle Center
06:06PM 40.7450 -121.3103 15° North 519 597 34,000 -60 Descending Seattle Center
06:07PM 40.8867 -121.2586 14° North 525 604 34,000  Level Seattle Center
06:08PM 41.0258 -121.2131 15° North 520 598 34,000  Level Seattle Center
06:09PM 41.1619 -121.1636 15° North 514 592 34,000  Level Seattle Center
06:10PM 41.2950 -121.1158 17° North 504 580 34,000  Level Seattle Center
06:11PM 41.4267 -121.0622 14° North 499 574 34,000  Level Seattle Center
06:12PM 41.5606 -121.0161 16° North 499 574 34,000  Level Seattle Center
06:13PM 41.6939 -120.9642 16° North 501 577 34,000  Level Seattle Center
06:14PM 41.8286 -120.9128 16° North 504 580 34,000  Level Seattle Center
06:15PM 41.9644 -120.8611 16° North 507 583 34,000  Level Seattle Center
06:16PM 42.1264 -120.7994 15° North 507 583 34,000  Level Seattle Center
06:17PM 42.2611 -120.7492 16° North 505 581 34,000  Level Seattle Center
06:18PM 42.3947 -120.6969 16° North 503 579 34,000  Level Seattle Center
06:19PM 42.5289 -120.6442 15° North 503 579 34,000  Level Seattle Center
06:20PM 42.6633 -120.5936 16° North 503 579 34,000  Level Seattle Center
06:22PM 42.7978 -120.5417 16° North 503 579 34,000  Level Seattle Center
06:23PM 42.9322 -120.4894 16° North 503 579 34,000  Level Seattle Center
06:24PM 43.0650 -120.4381 16° North 499 574 34,000  Level Seattle Center
06:25PM 43.1986 -120.3850 16° North 499 574 34,000  Level Seattle Center
06:26PM 43.3311 -120.3328 16° North 498 573 34,000  Level Seattle Center
06:27PM 43.4639 -120.2811 16° North 497 572 34,000  Level Seattle Center
06:28PM 43.6086 -120.2225 16° North 490 564 34,000  Level Seattle Center
06:29PM 43.7392 -120.1717 16° North 490 564 34,000  Level Seattle Center
06:30PM 43.8689 -120.1192 16° North 489 563 34,000  Level Seattle Center
06:31PM 43.9981 -120.0664 16° North 487 560 34,000  Level Seattle Center
06:32PM 44.1275 -120.0147 16° North 488 562 34,000  Level Seattle Center
06:33PM 44.2825 -119.9511 16° North 488 562 34,000  Level Seattle Center
06:34PM 44.4117 -119.8983 16° North 487 560 34,000 -300 Level Seattle Center
06:35PM 44.5403 -119.8453 16° North 487 560 33,400 -1,440 Descending Seattle Center
06:36PM 44.6789 -119.7881 16° North 509 586 31,100 -2,400 Descending Seattle Center
06:37PM 44.8236 -119.7297 17° North 547 629 28,600 -2,580 Descending Seattle Center
06:38PM 44.9592 -119.6717 16° North 528 608 25,900 -2,580 Descending Seattle Center
06:39PM 45.0906 -119.6172 17° North 508 585 23,400 -2,700 Descending Seattle Center
06:40PM 45.2411 -119.5536 16° North 486 559 20,500 -2,580 Descending Seattle Center
06:41PM 45.3594 -119.5050 17° North 463 533 18,200 -2,220 Descending Seattle Center
06:42PM 45.4739 -119.4558 16° North 439 505 16,100 -2,040 Descending Seattle Center
06:43PM 45.5842 -119.4097 16° North 423 487 14,100 -1,980 Descending Seattle Center
06:44PM 45.6939 -119.3633 29° Northeast 416 479 12,100 -1,680 Descending Seattle Center
06:45PM 45.7836 -119.2925 19° North 369 425 10,800 -1,320 Descending Seattle Center
06:46PM 45.8619 -119.2533 10° North 308 354 9,500 -1,740 Descending Seattle Center
06:47PM 45.9419 -119.2333 16° North 295 339 7,300 -2,460 Descending Seattle Center
06:48PM 46.0239 -119.2000 North 263 303 4,600 -2,100 Descending Seattle Center
06:49PM 46.0836 -119.1939 360° North 231 266 3,100 -840 Descending Seattle Center
06:50PM 46.1386 -119.1939 360° North 209 241 3,000 -120 Descending Seattle Center